Time;durP1;ratioP1;P1;durP2;ratioP2;P2;SDS_P1;SDS_P2;PMS_P1;PMS_P2;Temp;Humidity;BMP_temperature;BMP_pressure;BME280_temperature;BME280_humidity;BME280_pressure;Samples;Min_cycle;Max_cycle;Signal;HPM_P1;HPM_P2
2022/09/28 00:01:19;;;;;;;7.85;5.70;;;;;;;12.22;62.93;99517.91;4961067;28;114886;-62
2022/09/28 00:03:48;;;;;;;8.95;5.90;;;;;;;12.20;62.96;99517.16;4959631;28;125161;-62
2022/09/28 00:06:18;;;;;;;7.80;6.53;;;;;;;12.19;63.04;99507.50;4962328;28;124203;-62
2022/09/28 00:08:46;;;;;;;10.48;6.15;;;;;;;12.16;62.87;99507.72;4957032;28;114201;-62
2022/09/28 00:11:14;;;;;;;8.95;6.28;;;;;;;12.15;62.96;99506.03;4956850;28;114552;-62
2022/09/28 00:13:42;;;;;;;8.75;6.43;;;;;;;12.15;63.08;99506.03;4951487;28;124168;-62
2022/09/28 00:16:12;;;;;;;8.68;6.60;;;;;;;12.13;62.90;99497.34;4953901;28;123798;-62
2022/09/28 00:18:40;;;;;;;8.73;5.80;;;;;;;12.11;62.92;99507.22;4954582;28;114302;-62
2022/09/28 00:21:10;;;;;;;8.15;5.80;;;;;;;12.08;63.07;99504.78;4955297;28;114222;-62
2022/09/28 00:26:24;;;;;;;8.75;5.85;;;;;;;12.01;63.00;99498.22;4951619;28;124634;-62
2022/09/28 00:28:53;;;;;;;9.25;6.40;;;;;;;12.00;63.05;99501.84;4954355;28;114596;-62
2022/09/28 00:31:21;;;;;;;8.82;6.00;;;;;;;11.97;63.10;99507.38;4953695;28;113877;-62
2022/09/28 00:33:54;;;;;;;7.70;6.15;;;;;;;11.96;62.92;99500.34;4968018;28;123348;-62
2022/09/28 00:36:22;;;;;;;8.65;5.95;;;;;;;11.94;63.17;99502.28;4948610;28;124026;-62
2022/09/28 00:38:50;;;;;;;10.77;7.20;;;;;;;11.91;62.95;99500.69;4972141;28;113325;-62
2022/09/28 00:41:17;;;;;;;9.65;6.47;;;;;;;11.89;63.15;99499.94;4954741;28;112888;-62
2022/09/28 00:43:44;;;;;;;8.88;6.78;;;;;;;11.86;63.27;99500.97;4954919;28;123505;-63
2022/09/28 00:46:17;;;;;;;10.20;6.68;;;;;;;11.86;63.40;99505.44;4951161;28;123098;-62
2022/09/28 00:48:55;;;;;;;11.48;7.60;;;;;;;11.85;63.35;99496.66;4955479;28;115267;-62
2022/09/28 00:51:25;;;;;;;9.35;7.10;;;;;;;11.85;63.39;99494.00;4959489;28;115328;-62
2022/09/28 00:53:54;;;;;;;11.57;7.82;;;;;;;11.85;63.33;99488.69;4953159;28;124107;-62
2022/09/28 00:56:27;;;;;;;11.15;8.18;;;;;;;11.86;63.32;99486.88;4971583;28;122872;-62
2022/09/28 00:58:55;;;;;;;12.43;8.05;;;;;;;11.85;63.41;99488.69;4958650;28;114929;-62
2022/09/28 01:01:22;;;;;;;15.82;8.65;;;;;;;11.86;63.46;99487.72;4958085;28;114289;-62
2022/09/28 01:03:50;;;;;;;12.93;8.60;;;;;;;11.86;63.39;99484.22;4967728;28;123150;-62
2022/09/28 01:06:26;;;;;;;12.15;8.45;;;;;;;11.86;63.64;99482.41;4951476;28;122786;-62
2022/09/28 01:08:57;;;;;;;12.43;9.20;;;;;;;11.86;63.49;99485.06;4962633;28;114878;-62
2022/09/28 01:11:25;;;;;;;14.63;9.32;;;;;;;11.88;63.44;99480.53;4954949;28;114880;-62
2022/09/28 01:13:56;;;;;;;13.15;10.02;;;;;;;11.88;63.70;99477.88;4956095;28;123327;-62
2022/09/28 01:16:39;;;;;;;15.77;10.63;;;;;;;11.91;63.54;99481.28;4968729;28;123177;-62
2022/09/28 01:19:44;;;;;;;14.95;10.40;;;;;;;11.92;63.48;99482.97;4973871;28;114139;-62
2022/09/28 01:22:33;;;;;;;15.70;11.23;;;;;;;11.94;63.75;99471.31;4971501;28;113192;-62
2022/09/28 01:25:12;;;;;;;15.73;10.77;;;;;;;11.97;63.69;99475.53;4949753;28;122992;-62
2022/09/28 01:27:48;;;;;;;18.15;11.27;;;;;;;11.98;63.87;99471.91;4973150;28;123496;-63
2022/09/28 01:30:19;;;;;;;16.50;10.88;;;;;;;12.01;63.77;99477.00;4956350;28;97066;-62
2022/09/28 01:32:54;;;;;;;18.90;11.52;;;;;;;12.01;63.85;99466.38;4955047;28;114139;-62
2022/09/28 01:35:30;;;;;;;15.60;11.57;;;;;;;12.04;63.66;99466.16;4968048;28;123270;-63
2022/09/28 01:38:16;;;;;;;16.52;10.95;;;;;;;12.06;63.51;99474.84;4955672;28;124695;-63
2022/09/28 01:40:46;;;;;;;15.50;11.40;;;;;;;12.06;63.75;99474.84;4956094;28;114188;-62
2022/09/28 01:43:18;;;;;;;18.25;11.63;;;;;;;12.08;63.85;99478.25;4951781;28;115254;-62
2022/09/28 01:45:50;;;;;;;17.50;11.68;;;;;;;12.09;63.77;99469.31;4965821;28;123515;-62
2022/09/28 01:48:27;;;;;;;13.82;10.70;;;;;;;12.12;63.79;99469.09;4952474;28;122890;-62
2022/09/28 01:50:58;;;;;;;17.17;11.70;;;;;;;12.14;63.54;99477.78;4962488;28;114408;-62
2022/09/28 01:53:36;;;;;;;16.38;12.13;;;;;;;12.12;63.57;99471.75;4955698;28;113524;-62
2022/09/28 01:56:12;;;;;;;15.90;11.68;;;;;;;12.12;63.42;99474.41;4959636;28;123240;-62
2022/09/28 01:58:47;;;;;;;15.38;11.32;;;;;;;12.12;63.40;99479.72;4954214;28;122999;-62
2022/09/28 02:01:27;;;;;;;;;;;;;;;12.11;63.41;99478.03;4954142;28;113562;-62
2022/09/28 02:04:01;;;;;;;15.57;10.77;;;;;;;12.11;63.34;99475.38;4973092;28;112727;-62
2022/09/28 02:06:35;;;;;;;16.08;11.40;;;;;;;12.08;63.38;99478.25;4953570;28;124188;-62
2022/09/28 02:09:10;;;;;;;16.02;10.88;;;;;;;12.07;63.00;99481.84;4966014;28;126585;-62
2022/09/28 02:11:46;;;;;;;14.73;10.75;;;;;;;12.04;63.39;99471.47;4972108;28;113517;-62
2022/09/28 02:14:16;;;;;;;15.88;11.07;;;;;;;12.00;63.15;99475.31;4954935;28;112956;-62
2022/09/28 02:16:53;;;;;;;16.02;10.93;;;;;;;11.99;63.27;99473.59;4966658;28;123209;-62
2022/09/28 02:19:28;;;;;;;13.07;10.35;;;;;;;11.97;63.29;99475.53;4972240;28;122858;-63
2022/09/28 02:21:58;;;;;;;15.75;10.75;;;;;;;11.95;63.29;99472.97;4953098;28;114834;-62
2022/09/28 02:24:39;;;;;;;13.98;10.63;;;;;;;11.95;63.26;99472.16;4954093;28;114131;-62
2022/09/28 02:27:20;;;;;;;13.80;10.02;;;;;;;11.94;63.11;99475.75;4951759;28;123542;-62
2022/09/28 02:29:48;;;;;;;14.75;10.00;;;;;;;11.94;63.28;99481.06;4965399;28;123887;-63
2022/09/28 02:32:18;;;;;;;13.73;10.18;;;;;;;11.93;63.33;99480.22;4949961;28;115858;-62
2022/09/28 02:34:45;;;;;;;15.30;10.35;;;;;;;11.94;63.50;99486.34;4970858;28;114186;-62
2022/09/28 02:37:13;;;;;;;13.73;9.50;;;;;;;11.93;63.61;99474.06;4973628;28;123627;-62
2022/09/28 02:39:40;;;;;;;15.07;9.20;;;;;;;11.95;63.46;99488.06;4951713;28;123781;-62
2022/09/28 02:42:28;;;;;;;14.57;9.02;;;;;;;11.96;63.34;99490.63;4955375;28;113365;-61
2022/09/28 02:45:29;;;;;;;11.88;8.73;;;;;;;11.96;63.41;99489.75;4949937;28;113174;-62
2022/09/28 02:48:26;;;;;;;12.35;8.52;;;;;;;11.97;63.61;99486.97;4950115;28;124237;-61
2022/09/28 02:51:30;;;;;;;13.70;9.27;;;;;;;11.98;63.43;99488.69;4952847;28;123274;-62
2022/09/28 02:54:16;;;;;;;13.60;9.02;;;;;;;11.96;63.01;99485.31;4965812;28;113498;-62
2022/09/28 02:56:53;;;;;;;13.98;9.60;;;;;;;11.96;63.48;99473.81;4952527;28;114087;-62
2022/09/28 02:59:46;;;;;;;15.73;9.52;;;;;;;11.95;63.40;99477.44;4952613;28;124701;-63
2022/09/28 03:02:20;;;;;;;14.60;9.98;;;;;;;11.96;63.53;99479.13;4953409;28;123178;-62
2022/09/28 03:05:12;;;;;;;15.20;10.00;;;;;;;11.95;63.50;99477.44;4954363;28;112388;-61
2022/09/28 03:08:05;;;;;;;15.20;9.70;;;;;;;11.95;63.75;99472.97;4958564;28;113164;-62
2022/09/28 03:10:42;;;;;;;16.13;10.25;;;;;;;11.97;63.79;99480.84;4960427;28;123335;-62
2022/09/28 03:13:11;;;;;;;15.73;11.35;;;;;;;11.99;63.64;99478.91;4956403;28;124223;-62
2022/09/28 03:15:39;;;;;;;17.50;10.93;;;;;;;12.01;63.62;99477.00;4970790;28;113365;-62
2022/09/28 03:18:06;;;;;;;13.13;11.18;;;;;;;12.01;63.61;99466.38;4959449;28;113524;-62
2022/09/28 03:20:34;;;;;;;17.63;11.52;;;;;;;12.02;63.72;99476.06;4971084;28;123177;-62
2022/09/28 03:23:01;;;;;;;20.00;11.55;;;;;;;12.04;63.60;99482.09;4968525;28;123067;-62
2022/09/28 03:25:48;;;;;;;16.05;11.88;;;;;;;12.03;63.77;99475.06;4970491;28;115121;-62
2022/09/28 03:28:16;;;;;;;17.38;11.77;;;;;;;12.05;63.76;99478.47;4955750;28;115461;-62
2022/09/28 03:30:43;;;;;;;15.55;11.55;;;;;;;12.06;63.64;99485.47;4970673;28;123678;-62
2022/09/28 03:33:10;;;;;;;17.75;12.02;;;;;;;12.05;63.66;99478.47;4970884;28;123158;-62
2022/09/28 03:35:37;;;;;;;14.35;11.35;;;;;;;12.04;63.43;99482.09;4971431;28;113126;-62
2022/09/28 03:38:05;;;;;;;18.65;11.73;;;;;;;12.07;63.71;99480.06;4972894;28;113041;-62
2022/09/28 03:40:34;;;;;;;16.92;12.20;;;;;;;12.08;63.52;99488.88;4978503;28;123213;-62
2022/09/28 03:43:02;;;;;;;19.58;11.27;;;;;;;12.09;63.62;99479.94;4956124;28;123075;-62
2022/09/28 03:45:29;;;;;;;14.50;10.60;;;;;;;12.11;63.57;99488.66;4965300;28;112917;-62
2022/09/28 03:47:56;;;;;;;17.77;11.10;;;;;;;12.11;63.50;99496.59;4953380;28;113880;-61
2022/09/28 03:50:23;;;;;;;17.20;11.25;;;;;;;12.11;63.76;99483.34;4969520;28;123112;-62
2022/09/28 03:52:50;;;;;;;16.52;10.88;;;;;;;12.12;63.70;99478.88;4972083;28;123216;-62
2022/09/28 03:55:17;;;;;;;15.85;10.98;;;;;;;12.13;63.81;99480.56;4971050;28;113131;-62
2022/09/28 03:57:52;;;;;;;14.05;10.50;;;;;;;12.12;63.75;99485.03;4957378;28;113614;-62
2022/09/28 04:00:19;;;;;;;17.83;11.13;;;;;;;12.12;63.61;99482.38;4954221;28;123057;-62
2022/09/28 04:02:46;;;;;;;13.05;9.57;;;;;;;12.13;63.76;99478.75;4965051;28;122961;-62
2022/09/28 04:05:13;;;;;;;16.98;10.77;;;;;;;12.14;63.67;99483.09;4951636;28;114274;-61
2022/09/28 04:07:40;;;;;;;16.40;10.85;;;;;;;12.14;63.64;99483.09;4970822;28;113094;-63
2022/09/28 04:10:08;;;;;;;16.92;10.35;;;;;;;12.14;63.74;99483.09;4951337;28;125814;-62
2022/09/28 04:12:35;;;;;;;13.20;9.40;;;;;;;12.15;63.83;99479.50;4977823;28;123047;-62
2022/09/28 04:15:04;;;;;;;12.98;9.63;;;;;;;12.17;63.81;99482.03;4967835;28;114204;-62
2022/09/28 04:17:31;;;;;;;14.07;10.25;;;;;;;12.19;63.82;99486.28;4954006;28;114976;-62
2022/09/28 04:20:05;;;;;;;15.15;9.48;;;;;;;12.20;63.85;99477.31;4957659;28;123020;-62
2022/09/28 04:22:44;;;;;;;14.60;9.32;;;;;;;12.21;63.74;99479.03;4952838;28;123435;-62
2022/09/28 04:25:11;;;;;;;13.88;9.05;;;;;;;12.21;63.57;99479.03;4972977;28;113467;-61
2022/09/28 04:30:24;;;;;;;11.77;8.57;;;;;;;12.19;63.68;99480.97;4951172;28;124582;-61
2022/09/28 04:32:51;;;;;;;13.38;8.50;;;;;;;12.19;63.82;99480.97;4973266;28;123098;-61
2022/09/28 04:35:19;;;;;;;14.30;8.40;;;;;;;12.21;63.85;99473.72;4964950;28;113966;-62
2022/09/28 04:37:46;;;;;;;11.73;8.13;;;;;;;12.23;63.56;99482.41;4964622;28;113179;-62
2022/09/28 04:40:13;;;;;;;10.80;8.10;;;;;;;12.23;63.72;99482.41;4951466;28;124225;-62
2022/09/28 04:42:42;;;;;;;12.07;7.78;;;;;;;12.23;63.46;99482.41;4970697;28;122787;-62
2022/09/28 04:45:09;;;;;;;12.10;6.97;;;;;;;12.21;63.42;99479.03;4968454;28;113589;-62
2022/09/28 04:47:41;;;;;;;8.57;6.28;;;;;;;12.19;63.60;99475.66;4954574;28;113062;-62
2022/09/28 04:50:31;;;;;;;11.60;6.72;;;;;;;12.16;63.43;99481.19;4959063;28;125809;-62
2022/09/28 04:53:18;;;;;;;9.77;5.80;;;;;;;12.12;63.47;99485.03;4955807;28;123495;-62
2022/09/28 04:56:08;;;;;;;8.95;5.97;;;;;;;12.09;63.42;99479.94;4973802;28;113495;-62
2022/09/28 04:58:37;;;;;;;8.27;5.28;;;;;;;12.07;63.28;99474.75;4971429;28;113283;-61
2022/09/28 05:01:10;;;;;;;8.57;5.88;;;;;;;12.08;63.33;99480.91;4967174;28;123260;-62
2022/09/28 05:03:57;;;;;;;8.02;5.50;;;;;;;12.06;63.07;99485.47;4959743;28;125674;-62
2022/09/28 05:06:43;;;;;;;;;;;;;;;12.00;63.13;99485.94;4952933;28;115732;-62
2022/09/28 05:09:11;;;;;;;7.32;5.65;;;;;;;11.99;62.91;99490.38;4967627;28;113986;-62
2022/09/28 05:11:38;;;;;;;8.82;5.95;;;;;;;11.96;62.89;99489.75;4951675;28;124004;-62
2022/09/28 05:14:11;;;;;;;8.05;5.60;;;;;;;11.93;63.07;99495.28;4976864;28;122937;-61
2022/09/28 05:16:39;;;;;;;9.00;6.22;;;;;;;11.90;62.87;99500.81;4953816;28;113502;-63
2022/09/28 05:19:29;;;;;;;15.95;6.32;;;;;;;11.86;62.90;99494.84;4937500;28;113840;-62
2022/09/28 05:22:03;;;;;;;9.85;5.68;;;;;;;11.82;62.97;99502.16;4959175;28;123180;-62
2022/09/28 05:24:36;;;;;;;13.88;5.93;;;;;;;11.78;62.87;99503.34;4963179;28;122881;-60
2022/09/28 05:27:03;;;;;;;8.68;6.15;;;;;;;11.76;63.07;99510.56;4971050;28;113310;-60
2022/09/28 05:29:31;;;;;;;8.63;5.97;;;;;;;11.75;63.04;99508.03;4956486;28;113294;-60
2022/09/28 05:32:31;;;;;;;11.15;5.63;;;;;;;11.70;63.05;99500.41;4937868;28;124597;-61
2022/09/28 05:35:10;;;;;;;7.88;5.18;;;;;;;11.67;63.04;99501.47;4960577;28;124261;-62
2022/09/28 05:37:41;;;;;;;8.30;5.32;;;;;;;11.65;63.07;99503.38;4977627;28;113966;-62
2022/09/28 05:40:09;;;;;;;7.35;4.32;;;;;;;11.63;62.92;99499.16;4964766;28;113381;-62
2022/09/28 05:42:37;;;;;;;7.28;4.85;;;;;;;11.60;63.42;99499.34;4954378;28;123106;-62
2022/09/28 05:45:05;;;;;;;8.43;4.22;;;;;;;11.60;63.43;99499.34;4971535;28;123152;-62
2022/09/28 05:47:37;;;;;;;8.77;4.32;;;;;;;11.56;63.42;99500.53;4967296;28;113815;-62
2022/09/28 05:50:06;;;;;;;7.88;4.10;;;;;;;11.58;63.36;99501.25;4969411;28;113102;-62
2022/09/28 05:52:33;;;;;;;7.35;4.00;;;;;;;11.56;63.39;99503.19;4960359;28;123838;-61
2022/09/28 05:55:04;;;;;;;7.95;4.15;;;;;;;11.57;63.50;99512.84;4972101;28;123821;-61
2022/09/28 05:57:32;;;;;;;7.15;3.78;;;;;;;11.57;63.67;99516.34;4947638;28;114087;-61
2022/09/28 05:59:59;;;;;;;7.28;3.90;;;;;;;11.57;63.43;99515.50;4969610;28;114218;-61
2022/09/28 06:02:27;;;;;;;5.50;3.70;;;;;;;11.57;63.61;99516.34;4967537;28;122960;-61
2022/09/28 06:04:54;;;;;;;10.07;4.05;;;;;;;11.57;63.43;99523.47;4977562;28;124355;-61
2022/09/28 06:07:22;;;;;;;7.00;3.42;;;;;;;11.59;63.43;99521.53;4971316;28;113316;-62
2022/09/28 06:09:49;;;;;;;8.43;3.42;;;;;;;11.60;63.70;99521.44;4969375;28;112867;-61
2022/09/28 06:12:19;;;;;;;6.07;3.33;;;;;;;11.62;63.68;99523.97;4956635;28;123276;-61
2022/09/28 06:14:48;;;;;;;8.90;3.47;;;;;;;11.63;63.78;99529.16;4959432;28;123219;-61
2022/09/28 06:17:15;;;;;;;6.82;3.47;;;;;;;11.68;63.95;99534.16;4967760;28;114131;-61
2022/09/28 06:19:47;;;;;;;3.90;3.15;;;;;;;11.71;64.02;99533.91;4964089;28;113164;-61
2022/09/28 06:22:25;;;;;;;5.05;3.17;;;;;;;11.74;64.00;99539.00;4962808;28;123193;-61
2022/09/28 06:25:05;;;;;;;5.15;3.25;;;;;;;11.79;64.16;99539.53;4964992;28;122916;-61
2022/09/28 06:27:33;;;;;;;7.38;2.97;;;;;;;11.84;64.26;99533.91;4964430;28;113530;-61
2022/09/28 06:30:01;;;;;;;8.40;3.72;;;;;;;11.88;64.15;99540.69;4968482;28;112355;-61
2022/09/28 06:32:28;;;;;;;5.47;2.85;;;;;;;11.94;64.23;99542.06;4970831;28;122891;-61
2022/09/28 06:34:56;;;;;;;4.60;2.85;;;;;;;11.99;64.28;99547.91;4968506;28;123200;-61
2022/09/28 06:37:26;;;;;;;5.97;2.85;;;;;;;12.03;64.44;99549.38;4968525;28;113171;-61
2022/09/28 06:39:55;;;;;;;9.05;3.20;;;;;;;12.11;64.54;99541.72;4970365;28;114032;-61
2022/09/28 06:42:23;;;;;;;5.07;3.10;;;;;;;12.20;64.51;99551.66;4967641;28;123635;-61
2022/09/28 06:45:09;;;;;;;5.72;3.10;;;;;;;12.33;64.59;99550.78;4953338;28;124508;-61
2022/09/28 06:47:56;;;;;;;4.22;2.85;;;;;;;12.41;64.68;99554.56;4974988;28;114965;-61
2022/09/28 06:50:33;;;;;;;7.03;2.58;;;;;;;12.48;64.50;99549.63;4968851;28;114024;-61
2022/09/28 06:53:28;;;;;;;6.15;2.50;;;;;;;12.52;64.36;99548.44;4962463;28;124951;-61
2022/09/28 06:56:01;;;;;;;6.57;2.65;;;;;;;12.56;64.32;99555.22;4961124;28;124710;-61
2022/09/28 06:58:30;;;;;;;7.65;2.45;;;;;;;12.57;64.04;99554.28;4958073;28;113681;-61
2022/09/28 07:00:58;;;;;;;3.78;2.05;;;;;;;12.56;63.79;99557.88;4969056;28;113180;-61
2022/09/28 07:03:28;;;;;;;5.18;2.40;;;;;;;12.58;63.72;99555.13;4965509;28;123150;-61
2022/09/28 07:05:55;;;;;;;5.22;2.40;;;;;;;12.58;63.68;99555.97;4973101;28;124195;-61
2022/09/28 07:08:42;;;;;;;6.00;2.03;;;;;;;12.62;63.81;99557.44;4973996;28;115616;-61
2022/09/28 07:11:28;;;;;;;4.47;2.22;;;;;;;12.65;64.04;99562.50;4963019;28;114864;-61
2022/09/28 07:14:11;;;;;;;4.45;1.95;;;;;;;12.71;64.10;99557.72;4970598;28;124164;-61
2022/09/28 07:16:55;;;;;;;3.90;1.60;;;;;;;12.75;63.96;99567.13;4980124;28;123136;-60
2022/09/28 07:19:39;;;;;;;4.60;1.85;;;;;;;12.82;63.80;99568.38;4988538;28;113750;-61
2022/09/28 07:22:06;;;;;;;3.47;2.10;;;;;;;12.89;63.87;99564.31;4972524;28;113096;-61
2022/09/28 07:24:34;;;;;;;3.35;1.95;;;;;;;12.96;64.07;99570.84;4970206;28;124778;-61
2022/09/28 07:27:19;;;;;;;;;;;;;;;13.03;64.03;99569.44;4973662;28;124511;-61
2022/09/28 07:29:55;;;;;;;5.23;2.00;;;;;;;13.15;63.82;99572.13;4988040;28;113365;-61
2022/09/28 07:32:36;;;;;;;4.50;1.73;;;;;;;13.24;63.85;99571.41;4960075;28;112841;-61
2022/09/28 07:35:18;;;;;;;4.05;1.67;;;;;;;13.29;63.64;99577.22;4969537;28;123467;-61
2022/09/28 07:37:48;;;;;;;6.03;1.75;;;;;;;13.35;63.68;99587.41;4971796;28;123646;-61
2022/09/28 07:43:05;;;;;;;6.45;1.80;;;;;;;13.50;63.45;99584.53;4969047;28;113941;-61
2022/09/28 07:45:35;;;;;;;3.45;1.70;;;;;;;13.55;63.20;99587.69;4952641;28;122862;-61
2022/09/28 07:48:04;;;;;;;5.00;2.20;;;;;;;13.60;63.07;99596.19;4971879;28;123449;-61
2022/09/28 07:51:03;;;;;;;5.20;2.10;;;;;;;13.65;62.98;99599.31;4964106;28;114497;-61
2022/09/28 07:53:34;;;;;;;4.15;2.05;;;;;;;13.71;62.98;99593.53;4972414;28;113440;-61
2022/09/28 07:56:16;;;;;;;3.10;1.95;;;;;;;13.76;62.96;99601.97;4969888;28;126508;-62
2022/09/28 07:59:06;;;;;;;4.82;1.88;;;;;;;13.86;62.90;99606.56;4947747;28;124623;-62
2022/09/28 08:01:39;;;;;;;4.93;1.90;;;;;;;13.93;62.91;99599.81;4973164;28;114981;-61
2022/09/28 08:04:09;;;;;;;5.63;2.03;;;;;;;13.99;62.77;99608.16;4971261;28;113628;-61
2022/09/28 08:06:39;;;;;;;4.78;2.28;;;;;;;14.07;62.84;99615.53;4959554;28;123712;-62
2022/09/28 08:09:09;;;;;;;4.22;2.05;;;;;;;14.17;62.70;99613.00;4969375;28;122961;-61
2022/09/28 08:12:12;;;;;;;3.80;1.70;;;;;;;14.26;62.37;99616.72;4931279;28;114581;-62
2022/09/28 08:14:58;;;;;;;4.20;1.73;;;;;;;14.34;62.39;99627.63;4958016;28;113648;-61
2022/09/28 08:17:36;;;;;;;4.30;1.70;;;;;;;14.43;62.45;99621.56;4983594;28;125745;-61
2022/09/28 08:22:53;;;;;;;5.68;2.00;;;;;;;14.55;61.92;99615.22;4969753;28;113708;-62
2022/09/28 08:25:20;;;;;;;3.70;2.03;;;;;;;14.62;61.88;99620.06;4974093;28;112930;-61
2022/09/28 08:27:48;;;;;;;3.00;1.92;;;;;;;14.72;61.75;99626.34;4984483;28;123697;-61
2022/09/28 08:30:15;;;;;;;5.15;1.90;;;;;;;14.77;61.82;99629.50;4970168;28;123153;-62
2022/09/28 08:33:06;;;;;;;4.03;1.75;;;;;;;14.88;61.70;99626.78;4961512;28;116941;-61
2022/09/28 08:35:45;;;;;;;2.63;1.60;;;;;;;14.99;61.52;99632.09;4971959;28;116020;-63
2022/09/28 08:38:16;;;;;;;2.70;1.98;;;;;;;15.07;61.48;99625.25;4987511;28;125134;-61
2022/09/28 08:41:34;;;;;;;3.28;1.65;;;;;;;15.12;61.28;99633.72;4965466;28;125097;-61
2022/09/28 08:44:23;;;;;;;3.70;1.80;;;;;;;15.18;61.03;99638.53;4968864;28;113339;-61
2022/09/28 08:50:46;;;;;;;4.32;1.60;;;;;;;15.36;60.89;99631.66;4969767;28;124642;-62
2022/09/28 08:53:51;;;;;;;2.13;1.55;;;;;;;15.44;60.82;99630.16;4969386;28;123998;-62
2022/09/28 08:56:38;;;;;;;4.45;1.70;;;;;;;15.55;60.90;99635.44;4977790;28;113363;-62
2022/09/28 08:59:30;;;;;;;4.25;1.65;;;;;;;15.64;60.72;99634.66;4987222;28;113356;-62
2022/09/28 09:02:15;;;;;;;4.78;1.98;;;;;;;15.76;60.54;99641.66;4969222;28;123063;-62
2022/09/28 09:04:43;;;;;;;3.10;1.65;;;;;;;15.84;60.22;99640.13;4970813;28;123185;-63
2022/09/28 09:07:33;;;;;;;3.60;1.67;;;;;;;15.88;60.30;99644.22;4974255;28;113546;-62
2022/09/28 09:10:38;;;;;;;2.38;1.40;;;;;;;15.95;60.03;99645.38;4979055;28;112972;-62
2022/09/28 09:13:25;;;;;;;4.25;1.80;;;;;;;16.05;60.10;99648.09;4928607;28;123211;-62
2022/09/28 09:15:56;;;;;;;;;;;;;;;16.11;60.46;99653.75;4969983;28;123121;-62
2022/09/28 09:18:53;;;;;;;2.28;1.70;;;;;;;16.23;59.99;99648.31;4970720;28;113597;-62
2022/09/28 09:22:08;;;;;;;4.38;1.90;;;;;;;16.34;59.85;99648.22;4951282;28;113035;-63
2022/09/28 09:24:48;;;;;;;4.72;1.77;;;;;;;16.46;59.83;99656.97;4951740;28;123186;-62
2022/09/28 09:27:58;;;;;;;4.72;1.80;;;;;;;16.57;59.68;99664.03;4969359;28;123094;-63
2022/09/28 09:30:33;;;;;;;3.33;1.73;;;;;;;16.61;59.20;99660.09;4976962;28;114311;-62
2022/09/28 09:33:23;;;;;;;3.70;1.92;;;;;;;16.67;58.95;99662.22;4964346;28;116105;-62
2022/09/28 09:36:34;;;;;;;4.38;1.80;;;;;;;16.70;58.69;99660.09;4961048;28;124050;-62
2022/09/28 09:40:16;;;;;;;2.72;2.08;;;;;;;16.72;58.55;99663.50;4949447;28;124763;-62
2022/09/28 09:43:23;;;;;;;5.15;2.10;;;;;;;16.77;58.75;99676.47;4966982;28;114671;-62
2022/09/28 09:46:21;;;;;;;4.68;2.10;;;;;;;16.80;58.39;99676.19;4965619;28;114655;-62
2022/09/28 09:49:18;;;;;;;3.53;2.30;;;;;;;16.81;58.16;99677.88;4964185;28;124256;-62
2022/09/28 09:52:02;;;;;;;5.18;2.20;;;;;;;16.78;57.76;99677.31;4955233;28;123606;-63
2022/09/28 09:54:36;;;;;;;4.50;1.98;;;;;;;16.76;57.63;99674.75;4970186;28;113336;-62
2022/09/28 09:57:17;;;;;;;2.70;1.85;;;;;;;16.80;57.74;99675.31;4967642;28;113594;-63
2022/09/28 10:00:01;;;;;;;3.15;1.58;;;;;;;16.86;57.54;99673.00;4969366;28;123735;-63
2022/09/28 10:02:49;;;;;;;3.30;1.60;;;;;;;16.91;57.86;99673.44;4969928;28;122937;-62
2022/09/28 10:05:39;;;;;;;4.18;1.60;;;;;;;17.02;57.80;99676.94;4969448;28;113450;-62
2022/09/28 10:08:08;;;;;;;3.20;1.70;;;;;;;17.12;57.72;99675.13;4970453;28;113709;-63
2022/09/28 10:10:44;;;;;;;2.72;1.50;;;;;;;17.21;57.39;99673.44;4969332;28;123333;-62
2022/09/28 10:13:12;;;;;;;2.25;1.23;;;;;;;17.25;57.06;99670.34;4985738;28;124341;-62
2022/09/28 10:15:42;;;;;;;3.88;1.02;;;;;;;17.24;56.25;99665.97;4953169;28;113502;-63
2022/09/28 10:18:21;;;;;;;1.40;0.77;;;;;;;17.20;56.23;99677.94;4970145;28;113064;-62
2022/09/28 10:21:12;;;;;;;3.63;1.00;;;;;;;17.21;56.16;99668.94;4970295;28;124899;-63
2022/09/28 10:23:55;;;;;;;3.20;1.10;;;;;;;17.25;56.43;99665.00;4964455;28;122929;-63
2022/09/28 10:26:33;;;;;;;2.05;1.00;;;;;;;17.30;56.06;99668.09;4978224;28;113655;-63
2022/09/28 10:29:11;;;;;;;2.65;1.00;;;;;;;17.38;55.97;99663.84;4969632;28;115783;-63
2022/09/28 10:31:41;;;;;;;1.88;0.80;;;;;;;17.46;56.05;99666.66;4967607;28;123024;-63
2022/09/28 10:34:28;;;;;;;3.10;0.90;;;;;;;17.58;55.88;99662.84;4955546;28;124877;-63
2022/09/28 10:37:08;;;;;;;3.38;1.10;;;;;;;17.70;55.65;99664.34;4968949;28;113433;-63
2022/09/28 10:39:59;;;;;;;3.25;1.30;;;;;;;17.76;55.41;99670.97;4970561;28;112818;-62
2022/09/28 10:42:35;;;;;;;3.25;1.50;;;;;;;17.78;55.25;99665.47;4967412;28;124891;-62
2022/09/28 10:45:22;;;;;;;3.65;1.80;;;;;;;17.79;54.80;99667.19;4967906;28;124091;-62
2022/09/28 10:47:51;;;;;;;2.28;1.60;;;;;;;17.77;55.00;99674.53;4971855;28;114075;-63
2022/09/28 10:50:26;;;;;;;2.35;1.52;;;;;;;17.78;54.95;99657.44;4966191;28;114845;-64
2022/09/28 10:53:19;;;;;;;2.53;1.73;;;;;;;17.85;55.13;99661.28;4978764;28;123509;-64
2022/09/28 10:56:21;;;;;;;3.55;1.40;;;;;;;17.92;55.20;99665.06;4967006;28;124039;-62
2022/09/28 10:58:57;;;;;;;2.00;1.20;;;;;;;17.99;54.76;99668.84;4952446;28;113033;-62
2022/09/28 11:01:40;;;;;;;1.60;1.10;;;;;;;18.01;54.34;99672.22;4962798;28;113444;-61
2022/09/28 11:04:22;;;;;;;2.22;1.23;;;;;;;17.98;53.99;99672.50;4968868;28;123805;-61
2022/09/28 11:06:50;;;;;;;2.53;1.45;;;;;;;17.94;53.91;99676.47;4966638;28;123446;-61
2022/09/28 11:09:37;;;;;;;2.10;1.10;;;;;;;17.86;53.72;99673.69;4969613;28;113451;-62
2022/09/28 11:12:14;;;;;;;2.45;1.20;;;;;;;17.81;53.79;99670.56;4966438;28;112929;-62
2022/09/28 11:14:43;;;;;;;1.92;0.90;;;;;;;17.79;53.74;99667.19;4968758;28;123359;-62
2022/09/28 11:17:26;;;;;;;2.78;1.02;;;;;;;17.77;53.64;99666.47;4954650;28;126425;-62
2022/09/28 11:19:56;;;;;;;4.32;1.25;;;;;;;17.74;53.56;99664.91;4955405;28;115290;-62
2022/09/28 11:22:33;;;;;;;4.55;1.20;;;;;;;17.74;53.66;99664.09;4959653;28;115063;-62
2022/09/28 11:25:13;;;;;;;3.13;1.48;;;;;;;17.74;53.57;99658.72;4968266;28;123487;-62
2022/09/28 11:27:41;;;;;;;;;;;;;;;17.70;54.40;99659.00;4975901;28;122936;-61
2022/09/28 11:30:48;;;;;;;4.35;1.23;;;;;;;17.70;53.76;99664.34;4955065;28;114908;-62
2022/09/28 11:33:32;;;;;;;2.53;1.17;;;;;;;17.68;53.95;99660.16;4957333;28;113986;-62
2022/09/28 11:36:40;;;;;;;3.45;1.20;;;;;;;17.69;53.83;99661.84;4962457;28;125117;-62
2022/09/28 11:39:12;;;;;;;1.10;0.85;;;;;;;17.70;54.12;99659.00;4970669;28;122940;-62
2022/09/28 11:41:57;;;;;;;1.50;0.90;;;;;;;17.74;53.85;99661.41;4971470;28;113436;-62
2022/09/28 11:44:37;;;;;;;4.20;0.90;;;;;;;17.76;53.99;99662.09;4976176;28;116217;-62
2022/09/28 11:47:28;;;;;;;2.13;0.85;;;;;;;17.77;53.82;99669.16;4961372;28;123317;-62
2022/09/28 11:50:22;;;;;;;;;;;;;;;17.76;54.36;99662.09;4959798;28;124153;-62
2022/09/28 11:53:02;;;;;;;1.65;0.93;;;;;;;17.79;54.07;99672.53;4968114;28;113462;-61
2022/09/28 11:55:40;;;;;;;8.27;1.50;;;;;;;17.77;54.14;99674.53;4965135;28;114256;-61
2022/09/28 11:58:16;;;;;;;2.25;0.80;;;;;;;17.69;53.72;99667.22;4980634;28;123246;-61
2022/09/28 12:00:51;;;;;;;2.15;0.80;;;;;;;17.59;54.08;99664.53;4965665;28;123764;-61
2022/09/28 12:03:39;;;;;;;1.75;0.98;;;;;;;17.59;54.65;99661.84;4967615;28;113580;-61
2022/09/28 12:06:31;;;;;;;1.67;0.80;;;;;;;17.65;54.88;99661.28;4979608;28;114096;-61
2022/09/28 12:09:09;;;;;;;2.38;1.00;;;;;;;17.74;55.14;99654.22;4958949;28;123172;-62
2022/09/28 12:12:01;;;;;;;2.45;1.00;;;;;;;17.80;55.32;99658.16;4966263;28;124355;-61
2022/09/28 12:14:45;;;;;;;2.45;1.30;;;;;;;17.84;55.07;99649.72;4966576;28;114108;-61
2022/09/28 12:17:34;;;;;;;2.22;1.05;;;;;;;17.86;55.08;99652.25;4970411;28;115361;-62
2022/09/28 12:20:12;;;;;;;2.22;1.20;;;;;;;17.86;54.62;99652.25;4971729;28;123016;-62
2022/09/28 12:22:45;;;;;;;1.92;1.10;;;;;;;17.83;54.26;99647.97;4970246;28;124560;-61